createdAt,value
2023-03-02T00:01:55.049Z,74.67
2023-03-02T00:04:52.306Z,74.68
2023-03-02T00:07:26.634Z,74.17
2023-03-02T00:09:54.873Z,73.64
2023-03-02T00:12:22.781Z,73.89
2023-03-02T00:14:50.419Z,74.32
2023-03-02T00:17:18.227Z,74.49
2023-03-02T00:19:45.731Z,74.41
2023-03-02T00:22:13.642Z,73.92
2023-03-02T00:24:41.747Z,73.68
2023-03-02T00:27:09.673Z,73.90
2023-03-02T00:29:37.374Z,74.08
2023-03-02T00:32:06.303Z,73.77
2023-03-02T00:34:33.892Z,73.90
2023-03-02T00:37:01.726Z,74.13
2023-03-02T00:39:30.449Z,73.96
2023-03-02T00:41:58.408Z,74.53
2023-03-02T00:44:25.961Z,74.11
2023-03-02T00:46:53.809Z,74.58
2023-03-02T00:49:21.601Z,74.67
2023-03-02T00:51:50.169Z,74.57
2023-03-02T00:54:17.968Z,75.52
2023-03-02T00:56:45.903Z,75.37
2023-03-02T00:59:29.275Z,75.42
2023-03-02T01:02:18.857Z,75.07
2023-03-02T01:04:46.945Z,75.31
2023-03-02T01:07:18.433Z,75.42
2023-03-02T01:09:48.570Z,75.76
2023-03-02T01:12:17.049Z,75.50
2023-03-02T01:14:48.368Z,75.15
2023-03-02T01:17:17.144Z,75.71
2023-03-02T01:19:44.945Z,75.35
2023-03-02T01:22:12.773Z,75.95
2023-03-02T01:24:40.453Z,75.08
2023-03-02T01:27:08.563Z,75.30
2023-03-02T01:29:36.333Z,75.38
2023-03-02T01:32:04.728Z,75.80
2023-03-02T01:34:32.565Z,75.17
2023-03-02T01:37:00.511Z,75.50
2023-03-02T01:39:28.071Z,76.22
2023-03-02T01:41:56.177Z,75.49
2023-03-02T01:44:45.680Z,75.80
2023-03-02T01:47:18.652Z,75.59
2023-03-02T01:50:17.939Z,75.33
2023-03-02T01:52:46.647Z,75.29
2023-03-02T01:55:22.130Z,75.56
2023-03-02T01:57:52.148Z,75.71
2023-03-02T02:00:28.663Z,75.34
2023-03-02T02:03:09.283Z,75.72
2023-03-02T02:05:43.292Z,75.67
2023-03-02T02:08:11.369Z,75.38
2023-03-02T02:10:40.770Z,75.34
2023-03-02T02:13:12.024Z,75.40
2023-03-02T02:15:40.563Z,75.38
2023-03-02T02:18:09.098Z,75.16
2023-03-02T02:20:48.921Z,75.42
2023-03-02T02:23:46.808Z,74.59
2023-03-02T02:26:33.004Z,75.06
2023-03-02T02:29:26.163Z,74.96
2023-03-02T02:32:02.854Z,75.28
2023-03-02T02:34:59.008Z,74.84
2023-03-02T02:37:39.740Z,75.06
2023-03-02T02:40:20.770Z,74.48
2023-03-02T02:42:52.577Z,74.20
2023-03-02T02:45:30.847Z,74.18
2023-03-02T02:47:58.935Z,73.83
2023-03-02T02:50:32.205Z,73.57
2023-03-02T02:53:10.150Z,74.16
2023-03-02T02:55:39.192Z,73.86
2023-03-02T02:58:44.717Z,74.21
2023-03-02T03:01:19.139Z,74.25
2023-03-02T03:03:57.730Z,74.13
2023-03-02T03:06:38.242Z,74.05
2023-03-02T03:09:08.776Z,74.36
2023-03-02T03:11:46.575Z,74.27
2023-03-02T03:14:18.809Z,74.31
2023-03-02T03:16:50.226Z,74.54
2023-03-02T03:19:35.526Z,74.61
2023-03-02T03:22:03.452Z,74.30
2023-03-02T03:24:35.925Z,74.30
2023-03-02T03:27:07.489Z,74.33
2023-03-02T03:29:41.341Z,74.76
2023-03-02T03:32:11.209Z,74.22
2023-03-02T03:34:41.706Z,73.97
2023-03-02T03:37:19.685Z,74.52
2023-03-02T03:39:48.099Z,74.15
2023-03-02T03:42:18.277Z,74.75
2023-03-02T03:44:47.174Z,74.27
2023-03-02T03:47:15.719Z,74.29
2023-03-02T03:49:43.777Z,74.27
2023-03-02T03:52:11.957Z,74.65
2023-03-02T03:54:39.663Z,74.70
2023-03-02T03:57:08.295Z,74.23
2023-03-02T03:59:35.849Z,74.19
2023-03-02T04:02:04.872Z,74.52
2023-03-02T04:04:37.131Z,75.01
2023-03-02T04:07:10.163Z,74.37
2023-03-02T04:09:39.397Z,74.57
2023-03-02T04:12:12.820Z,74.94
2023-03-02T04:14:45.681Z,74.79
2023-03-02T04:17:13.832Z,74.99
2023-03-02T04:19:45.861Z,74.89
2023-03-02T04:22:15.332Z,75.01
2023-03-02T04:24:43.991Z,75.17
2023-03-02T04:27:13.699Z,75.37
2023-03-02T04:29:41.541Z,75.21
2023-03-02T04:32:09.921Z,75.27
2023-03-02T04:34:39.357Z,75.68
2023-03-02T04:37:07.589Z,76.10
2023-03-02T04:39:35.294Z,76.27
2023-03-02T04:42:03.262Z,75.87
2023-03-02T04:44:31.005Z,75.53
2023-03-02T04:46:59.149Z,74.98
2023-03-02T04:49:26.903Z,74.92
2023-03-02T04:51:54.811Z,74.87
2023-03-02T04:54:26.479Z,74.77
2023-03-02T04:56:55.549Z,74.21
2023-03-02T04:59:26.891Z,74.80
2023-03-02T05:01:58.932Z,74.51
2023-03-02T05:04:28.742Z,74.26
2023-03-02T05:06:57.820Z,74.24
2023-03-02T05:09:30.986Z,74.33
2023-03-02T05:12:01.030Z,74.44
2023-03-02T05:14:29.403Z,74.47
2023-03-02T05:16:58.013Z,74.76
2023-03-02T05:19:25.909Z,74.53
2023-03-02T05:21:53.901Z,73.99
2023-03-02T05:24:21.692Z,73.83
2023-03-02T05:26:50.494Z,73.82
2023-03-02T05:29:17.988Z,73.99
2023-03-02T05:31:47.365Z,74.14
2023-03-02T05:34:17.362Z,73.93
2023-03-02T05:36:45.871Z,73.79
2023-03-02T05:39:13.931Z,73.22
2023-03-02T05:41:42.493Z,73.46
2023-03-02T05:44:12.155Z,73.27
2023-03-02T05:46:40.345Z,73.51
2023-03-02T05:49:07.985Z,73.06
2023-03-02T05:51:35.849Z,73.22
2023-03-02T05:54:03.432Z,73.44
2023-03-02T05:56:31.759Z,73.66
2023-03-02T05:58:59.478Z,73.29
2023-03-02T06:01:27.409Z,74.02
2023-03-02T06:03:54.881Z,73.87
2023-03-02T06:06:22.721Z,74.45
2023-03-02T06:08:50.330Z,74.49
2023-03-02T06:11:18.182Z,74.08
2023-03-02T06:13:45.655Z,74.81
2023-03-02T06:16:13.689Z,74.90
2023-03-02T06:18:41.714Z,74.64
2023-03-02T06:21:10.055Z,73.99
2023-03-02T06:23:37.747Z,73.68
2023-03-02T06:26:12.196Z,73.89
2023-03-02T06:28:51.496Z,73.74
2023-03-02T06:31:21.914Z,74.04
2023-03-02T06:33:49.931Z,73.44
2023-03-02T06:36:18.283Z,72.87
2023-03-02T06:38:46.294Z,73.21
2023-03-02T06:41:15.523Z,73.35
2023-03-02T06:43:43.438Z,73.41
2023-03-02T06:46:12.300Z,72.87
2023-03-02T06:48:39.921Z,73.13
2023-03-02T06:51:08.393Z,72.39
2023-03-02T06:53:36.134Z,72.71
2023-03-02T06:56:04.535Z,72.35
2023-03-02T06:58:32.085Z,71.91
2023-03-02T07:01:00.538Z,72.25
2023-03-02T07:03:28.205Z,72.21
2023-03-02T07:05:56.365Z,71.97
2023-03-02T07:08:24.184Z,72.17
2023-03-02T07:10:52.151Z,72.36
2023-03-02T07:13:19.877Z,72.36
2023-03-02T07:15:47.774Z,72.61
2023-03-02T07:18:15.400Z,71.08
2023-03-02T07:20:43.320Z,71.24
2023-03-02T07:23:10.946Z,71.53
2023-03-02T07:25:38.753Z,72.05
2023-03-02T07:28:06.218Z,72.46
2023-03-02T07:30:34.156Z,72.61
2023-03-02T07:33:01.966Z,72.48
2023-03-02T07:35:29.780Z,73.00
2023-03-02T07:37:57.410Z,73.11
2023-03-02T07:40:25.262Z,73.93
2023-03-02T07:42:52.818Z,72.90
2023-03-02T07:45:24.892Z,72.67
2023-03-02T07:47:52.760Z,72.80
2023-03-02T07:50:20.629Z,72.75
2023-03-02T07:52:48.134Z,72.63
2023-03-02T07:55:16.052Z,72.74
2023-03-02T07:57:43.629Z,73.34
2023-03-02T08:00:12.360Z,73.72
2023-03-02T08:02:41.938Z,74.14
2023-03-02T08:05:11.866Z,74.08
2023-03-02T08:07:40.679Z,74.31
2023-03-02T08:10:09.731Z,74.79
2023-03-02T08:12:37.762Z,74.71
2023-03-02T08:15:06.612Z,75.00
2023-03-02T08:17:34.167Z,75.15
2023-03-02T08:20:02.052Z,74.94
2023-03-02T08:22:29.720Z,75.47
2023-03-02T08:24:57.479Z,75.99
2023-03-02T08:27:25.020Z,76.97
2023-03-02T08:29:54.263Z,77.90
2023-03-02T08:32:21.969Z,78.71
2023-03-02T08:34:51.889Z,78.56
2023-03-02T08:37:20.217Z,79.56
2023-03-02T08:39:48.632Z,79.61
2023-03-02T08:42:16.413Z,80.22
2023-03-02T08:44:44.744Z,80.82
2023-03-02T08:47:12.995Z,80.38
2023-03-02T08:49:41.269Z,80.12
2023-03-02T08:52:08.906Z,80.36
2023-03-02T08:54:37.613Z,80.27
2023-03-02T08:57:09.578Z,80.62
2023-03-02T08:59:37.623Z,81.18
2023-03-02T09:02:05.276Z,82.06
2023-03-02T09:04:35.251Z,80.64
2023-03-02T09:07:02.778Z,81.34
2023-03-02T09:09:30.715Z,81.74
2023-03-02T09:11:58.368Z,82.21
2023-03-02T09:14:27.563Z,81.64
2023-03-02T09:16:55.483Z,80.95
2023-03-02T09:19:23.490Z,80.96
2023-03-02T09:21:51.212Z,79.85
2023-03-02T09:24:19.072Z,80.56
2023-03-02T09:26:46.809Z,79.75
2023-03-02T09:29:14.725Z,80.15
2023-03-02T09:31:42.729Z,80.80
2023-03-02T09:34:10.651Z,80.42
2023-03-02T09:36:38.508Z,81.42
2023-03-02T09:39:12.354Z,82.66
2023-03-02T09:42:00.060Z,82.56
2023-03-02T09:45:03.528Z,81.63
2023-03-02T09:47:59.456Z,80.57
2023-03-02T09:50:41.327Z,80.25
2023-03-02T09:53:39.011Z,81.05
2023-03-02T09:56:17.203Z,80.28
2023-03-02T09:59:11.169Z,79.62
2023-03-02T10:01:46.617Z,79.50
2023-03-02T10:04:33.523Z,79.27
2023-03-02T10:07:22.533Z,79.05
2023-03-02T10:09:50.059Z,76.77
2023-03-02T10:13:21.636Z,77.40
2023-03-02T10:16:19.462Z,76.86
2023-03-02T10:19:06.129Z,76.04
2023-03-02T10:21:41.831Z,76.60
2023-03-02T10:24:39.689Z,77.47
2023-03-02T10:27:24.668Z,78.57
2023-03-02T10:30:06.598Z,78.76
2023-03-02T10:32:47.883Z,79.48
2023-03-02T10:35:28.932Z,79.34
2023-03-02T10:38:19.578Z,79.05
2023-03-02T10:41:06.789Z,79.07
2023-03-02T10:43:47.819Z,78.90
2023-03-02T10:46:16.231Z,78.15
2023-03-02T10:48:56.797Z,78.01
2023-03-02T10:51:29.140Z,77.94
2023-03-02T10:54:12.396Z,77.42
2023-03-02T10:56:50.418Z,77.68
2023-03-02T10:59:29.248Z,77.04
2023-03-02T11:02:02.665Z,76.71
2023-03-02T11:04:32.127Z,76.53
2023-03-02T11:07:20.978Z,75.92
2023-03-02T11:10:07.047Z,75.02
2023-03-02T11:12:37.914Z,74.59
2023-03-02T11:15:17.324Z,73.74
2023-03-02T11:17:48.303Z,74.12
2023-03-02T11:20:41.318Z,74.06
2023-03-02T11:23:49.660Z,74.07
2023-03-02T11:26:34.111Z,73.33
2023-03-02T11:29:22.645Z,72.63
2023-03-02T11:32:14.508Z,72.48
2023-03-02T11:35:12.379Z,72.66
2023-03-02T11:37:51.970Z,71.15
2023-03-02T11:40:53.685Z,71.96
2023-03-02T11:43:21.300Z,71.78
2023-03-02T11:46:10.868Z,71.46
2023-03-02T11:48:49.635Z,71.08
2023-03-02T11:51:36.914Z,70.17
2023-03-02T11:54:53.370Z,70.08
2023-03-02T11:57:33.245Z,70.27
2023-03-02T12:00:01.888Z,69.13
2023-03-02T12:02:29.732Z,68.66
2023-03-02T12:05:08.166Z,69.38
2023-03-02T12:07:36.926Z,70.05
2023-03-02T12:10:22.949Z,69.56
2023-03-02T12:13:34.646Z,68.52
2023-03-02T12:16:02.599Z,67.19
2023-03-02T12:18:44.682Z,65.74
2023-03-02T12:21:16.482Z,65.26
2023-03-02T12:23:49.988Z,65.19
2023-03-02T12:26:20.408Z,64.65
2023-03-02T12:29:11.856Z,64.60
2023-03-02T12:31:48.690Z,64.44
2023-03-02T12:34:35.260Z,64.13
2023-03-02T12:37:21.828Z,64.47
2023-03-02T12:40:33.010Z,63.90
2023-03-02T12:43:31.818Z,63.69
2023-03-02T12:46:33.227Z,63.96
2023-03-02T12:49:30.447Z,62.91
2023-03-02T12:52:01.682Z,62.60
2023-03-02T12:54:33.194Z,61.80
2023-03-02T12:57:17.693Z,61.38
2023-03-02T12:59:59.306Z,61.25
2023-03-02T13:02:29.833Z,59.67
2023-03-02T13:05:05.196Z,59.99
2023-03-02T13:07:43.463Z,60.35
2023-03-02T13:10:41.866Z,59.93
2023-03-02T13:13:22.939Z,59.83
2023-03-02T13:15:57.353Z,60.02
2023-03-02T13:18:32.751Z,60.71
2023-03-02T13:21:02.399Z,60.05
2023-03-02T13:23:33.774Z,60.19
2023-03-02T13:26:05.736Z,60.48
2023-03-02T13:28:36.532Z,60.23
2023-03-02T13:31:23.217Z,59.27
2023-03-02T13:33:54.687Z,59.17
2023-03-02T13:36:35.435Z,59.33
2023-03-02T13:39:07.148Z,58.74
2023-03-02T13:41:37.352Z,57.68
2023-03-02T13:44:19.990Z,58.02
2023-03-02T13:46:48.732Z,57.87
2023-03-02T13:49:34.039Z,58.40
2023-03-02T13:52:07.047Z,59.19
2023-03-02T13:54:37.622Z,59.12
2023-03-02T13:57:06.429Z,59.98
2023-03-02T13:59:36.712Z,60.37
2023-03-02T14:02:21.432Z,60.75
2023-03-02T14:04:49.320Z,60.88
2023-03-02T14:07:17.705Z,60.82
2023-03-02T14:09:45.946Z,60.04
2023-03-02T14:12:28.607Z,60.34
2023-03-02T14:15:00.517Z,59.27
2023-03-02T14:17:28.385Z,60.08
2023-03-02T14:19:56.829Z,60.30
2023-03-02T14:22:27.385Z,60.28
2023-03-02T14:24:55.288Z,60.51
2023-03-02T14:27:29.700Z,61.13
2023-03-02T14:29:58.162Z,61.76
2023-03-02T14:32:25.672Z,62.11
2023-03-02T14:34:53.495Z,61.92
2023-03-02T14:37:25.270Z,62.96
2023-03-02T14:39:56.932Z,62.64
2023-03-02T14:42:24.630Z,62.81
2023-03-02T14:44:53.039Z,62.51
2023-03-02T14:47:21.882Z,63.08
2023-03-02T14:49:49.922Z,62.70
2023-03-02T14:52:30.661Z,62.40
2023-03-02T14:55:06.653Z,62.53
2023-03-02T14:57:38.729Z,62.70
2023-03-02T15:00:13.053Z,62.93
2023-03-02T15:02:41.316Z,62.81
2023-03-02T15:05:09.749Z,63.23
2023-03-02T15:07:39.023Z,64.14
2023-03-02T15:10:12.406Z,64.52
2023-03-02T15:12:39.990Z,65.09
2023-03-02T15:15:08.967Z,64.92
2023-03-02T15:17:36.549Z,64.86
2023-03-02T15:20:06.273Z,64.64
2023-03-02T15:22:34.226Z,64.24
2023-03-02T15:25:02.262Z,63.98
2023-03-02T15:27:32.098Z,64.79
2023-03-02T15:29:59.905Z,64.19
2023-03-02T15:32:27.480Z,64.76
2023-03-02T15:34:55.376Z,64.99
2023-03-02T15:37:22.802Z,65.66
2023-03-02T15:39:55.810Z,66.32
2023-03-02T15:42:24.019Z,65.41
2023-03-02T15:44:51.886Z,65.19
2023-03-02T15:47:19.410Z,64.77
2023-03-02T15:49:47.131Z,64.94
2023-03-02T15:52:14.870Z,64.40
2023-03-02T15:54:42.697Z,63.73
2023-03-02T15:57:10.303Z,63.62
2023-03-02T15:59:38.183Z,63.60
2023-03-02T16:02:05.730Z,63.34
2023-03-02T16:04:34.233Z,63.24
2023-03-02T16:07:02.284Z,62.56
2023-03-02T16:09:31.058Z,62.57
2023-03-02T16:11:58.836Z,62.22
2023-03-02T16:14:26.646Z,62.51
2023-03-02T16:16:54.418Z,62.73
2023-03-02T16:19:22.282Z,62.98
2023-03-02T16:21:49.787Z,63.49
2023-03-02T16:24:17.714Z,63.39
2023-03-02T16:26:45.675Z,62.97
2023-03-02T16:29:14.310Z,62.53
2023-03-02T16:31:45.330Z,61.73
2023-03-02T16:34:14.083Z,61.54
2023-03-02T16:36:42.472Z,61.62
2023-03-02T16:39:12.133Z,60.97
2023-03-02T16:41:43.020Z,60.98
2023-03-02T16:44:13.553Z,61.36
2023-03-02T16:46:43.728Z,61.37
2023-03-02T16:49:13.577Z,61.78
2023-03-02T16:51:44.398Z,62.16
2023-03-02T16:54:18.322Z,62.96
2023-03-02T16:56:47.593Z,63.79
2023-03-02T16:59:16.160Z,64.12
2023-03-02T17:01:43.915Z,64.20
2023-03-02T17:04:11.895Z,63.83
2023-03-02T17:06:45.748Z,63.65
2023-03-02T17:09:22.620Z,62.90
2023-03-02T17:11:50.014Z,63.30
2023-03-02T17:14:17.856Z,62.12
2023-03-02T17:16:45.440Z,62.13
2023-03-02T17:19:13.232Z,62.34
2023-03-02T17:21:40.945Z,61.86
2023-03-02T17:24:08.862Z,61.85
2023-03-02T17:26:36.395Z,62.21
2023-03-02T17:29:04.228Z,62.91
2023-03-02T17:31:31.934Z,63.19
2023-03-02T17:33:59.827Z,62.31
2023-03-02T17:36:27.376Z,63.25
2023-03-02T17:38:55.350Z,63.38
2023-03-02T17:41:22.829Z,62.96
2023-03-02T17:43:50.732Z,63.23
2023-03-02T17:46:23.406Z,63.43
2023-03-02T17:48:57.757Z,63.81
2023-03-02T17:51:28.104Z,64.19
2023-03-02T17:53:56.720Z,63.79
2023-03-02T17:56:27.939Z,64.17
2023-03-02T17:59:02.109Z,64.06
2023-03-02T18:01:30.069Z,64.07
2023-03-02T18:03:59.019Z,64.50
2023-03-02T18:06:27.631Z,64.34
2023-03-02T18:08:55.565Z,65.15
2023-03-02T18:11:24.411Z,64.19
2023-03-02T18:13:56.800Z,64.21
2023-03-02T18:16:26.600Z,64.59
2023-03-02T18:18:55.193Z,64.01
2023-03-02T18:21:23.123Z,64.22
2023-03-02T18:23:51.669Z,64.13
2023-03-02T18:26:19.521Z,64.59
2023-03-02T18:28:47.309Z,64.85
2023-03-02T18:31:17.198Z,64.97
2023-03-02T18:33:45.614Z,64.60
2023-03-02T18:36:14.429Z,65.12
2023-03-02T18:38:43.148Z,65.04
2023-03-02T18:41:12.674Z,64.53
2023-03-02T18:43:42.798Z,64.89
2023-03-02T18:46:25.903Z,64.68
2023-03-02T18:48:55.337Z,65.53
2023-03-02T18:51:25.427Z,65.00
2023-03-02T18:53:54.468Z,63.29
2023-03-02T18:56:22.697Z,62.34
2023-03-02T18:58:51.519Z,61.34
2023-03-02T19:01:19.836Z,61.75
2023-03-02T19:03:49.092Z,60.12
2023-03-02T19:06:16.908Z,59.71
2023-03-02T19:08:44.717Z,59.07
2023-03-02T19:11:12.316Z,58.88
2023-03-02T19:13:39.709Z,58.71
2023-03-02T19:16:07.923Z,59.02
2023-03-02T19:18:35.624Z,58.98
2023-03-02T19:21:05.286Z,58.98
2023-03-02T19:23:33.106Z,59.69
2023-03-02T19:26:01.621Z,60.99
2023-03-02T19:28:29.256Z,61.20
2023-03-02T19:30:57.220Z,62.13
2023-03-02T19:33:24.975Z,62.72
2023-03-02T19:35:52.864Z,63.79
2023-03-02T19:38:22.742Z,63.50
2023-03-02T19:40:50.569Z,63.72
2023-03-02T19:43:20.385Z,64.53
2023-03-02T19:45:48.445Z,64.21
2023-03-02T19:48:16.091Z,64.54
2023-03-02T19:50:45.454Z,65.18
2023-03-02T19:53:14.468Z,65.20
2023-03-02T19:55:42.851Z,65.22
2023-03-02T19:58:16.910Z,65.62
2023-03-02T20:00:46.198Z,65.22
2023-03-02T20:03:14.030Z,65.93
2023-03-02T20:05:42.451Z,65.93
2023-03-02T20:08:10.040Z,66.33
2023-03-02T20:10:43.430Z,66.78
2023-03-02T20:13:12.201Z,67.10
2023-03-02T20:15:44.995Z,66.49
2023-03-02T20:18:18.821Z,67.26
2023-03-02T20:20:48.639Z,66.25
2023-03-02T20:23:17.744Z,67.61
2023-03-02T20:25:48.315Z,68.05
2023-03-02T20:28:20.842Z,67.23
2023-03-02T20:30:56.910Z,67.99
2023-03-02T20:33:30.552Z,67.80
2023-03-02T20:36:00.850Z,67.89
2023-03-02T20:38:35.225Z,67.54
2023-03-02T20:41:06.081Z,68.57
2023-03-02T20:43:34.156Z,67.95
2023-03-02T20:46:02.321Z,68.07
2023-03-02T20:48:29.948Z,67.44
2023-03-02T20:50:58.028Z,68.15
2023-03-02T20:53:27.426Z,68.28
2023-03-02T20:55:56.639Z,67.88
2023-03-02T20:58:24.225Z,67.90
2023-03-02T21:00:53.865Z,67.91
2023-03-02T21:03:21.911Z,68.80
2023-03-02T21:05:49.827Z,68.97
2023-03-02T21:08:17.310Z,68.25
2023-03-02T21:10:45.556Z,69.05
2023-03-02T21:13:13.565Z,68.67
2023-03-02T21:15:41.626Z,69.16
2023-03-02T21:18:09.304Z,68.60
2023-03-02T21:20:37.629Z,68.62
2023-03-02T21:23:05.842Z,68.94
2023-03-02T21:25:33.781Z,69.16
2023-03-02T21:28:02.387Z,68.52
2023-03-02T21:30:35.337Z,69.85
2023-03-02T21:33:03.650Z,68.74
2023-03-02T21:35:31.903Z,69.34
2023-03-02T21:38:04.194Z,69.38
2023-03-02T21:40:40.845Z,69.24
2023-03-02T21:43:09.883Z,69.53
2023-03-02T21:45:37.902Z,69.70
2023-03-02T21:48:06.723Z,69.17
2023-03-02T21:50:38.538Z,68.16
2023-03-02T21:53:06.656Z,68.69
2023-03-02T21:55:35.422Z,68.46
2023-03-02T21:58:03.186Z,67.97
2023-03-02T22:00:35.849Z,68.31
2023-03-02T22:03:03.861Z,68.44
2023-03-02T22:05:33.495Z,68.37
2023-03-02T22:08:01.343Z,68.10
2023-03-02T22:10:45.137Z,68.14
2023-03-02T22:13:32.873Z,67.44
2023-03-02T22:16:16.081Z,68.26
2023-03-02T22:18:45.687Z,68.01
2023-03-02T22:21:31.548Z,67.68
2023-03-02T22:24:17.925Z,67.57
2023-03-02T22:27:05.005Z,68.12
2023-03-02T22:29:41.265Z,68.74
2023-03-02T22:32:18.351Z,68.20
2023-03-02T22:34:48.950Z,68.18
2023-03-02T22:37:24.925Z,68.19
2023-03-02T22:40:00.932Z,68.90
2023-03-02T22:42:30.967Z,67.54
2023-03-02T22:45:17.370Z,66.56
2023-03-02T22:47:51.464Z,65.31
2023-03-02T22:50:29.963Z,64.43
2023-03-02T22:53:18.945Z,64.26
2023-03-02T22:55:48.220Z,63.39
2023-03-02T22:58:21.944Z,63.89
2023-03-02T23:00:49.546Z,63.95
2023-03-02T23:03:39.878Z,65.07
2023-03-02T23:06:37.260Z,65.47
2023-03-02T23:09:06.905Z,66.00
2023-03-02T23:11:39.482Z,66.27
2023-03-02T23:14:47.740Z,66.53
2023-03-02T23:17:40.852Z,67.05
2023-03-02T23:20:14.973Z,67.01
2023-03-02T23:22:43.354Z,66.58
2023-03-02T23:25:11.502Z,67.14
2023-03-02T23:27:38.981Z,67.39
2023-03-02T23:30:08.679Z,66.67
2023-03-02T23:32:36.694Z,66.78
2023-03-02T23:35:05.012Z,67.59
2023-03-02T23:37:33.208Z,67.88
2023-03-02T23:40:01.294Z,67.47
2023-03-02T23:42:28.841Z,67.80
2023-03-02T23:44:56.874Z,67.96
2023-03-02T23:47:25.089Z,67.72
2023-03-02T23:49:53.039Z,68.21
2023-03-02T23:52:20.842Z,68.23
2023-03-02T23:54:49.296Z,67.29
2023-03-02T23:57:17.338Z,67.70
2023-03-02T23:59:45.549Z,67.20
